sensor_id;sensor_type;location;lat;lon;timestamp;P1;durP1;ratioP1;P2;durP2;ratioP2
20758;SDS011;10539;53.686;9.158;2023-03-08T00:01:14;2.43;;;1.10;;
20758;SDS011;10539;53.686;9.158;2023-03-08T00:03:41;2.70;;;1.33;;
20758;SDS011;10539;53.686;9.158;2023-03-08T00:06:07;3.00;;;1.10;;
20758;SDS011;10539;53.686;9.158;2023-03-08T00:08:36;2.67;;;1.17;;
20758;SDS011;10539;53.686;9.158;2023-03-08T00:11:06;3.43;;;1.03;;
20758;SDS011;10539;53.686;9.158;2023-03-08T00:13:33;3.43;;;1.20;;
20758;SDS011;10539;53.686;9.158;2023-03-08T00:16:02;2.67;;;1.10;;
20758;SDS011;10539;53.686;9.158;2023-03-08T00:18:30;2.77;;;1.20;;
20758;SDS011;10539;53.686;9.158;2023-03-08T00:20:58;2.80;;;1.03;;
20758;SDS011;10539;53.686;9.158;2023-03-08T00:23:29;2.20;;;1.13;;
20758;SDS011;10539;53.686;9.158;2023-03-08T00:25:56;3.23;;;1.30;;
20758;SDS011;10539;53.686;9.158;2023-03-08T00:28:22;4.97;;;1.30;;
20758;SDS011;10539;53.686;9.158;2023-03-08T00:30:55;5.77;;;1.40;;
20758;SDS011;10539;53.686;9.158;2023-03-08T00:33:22;4.33;;;1.20;;
20758;SDS011;10539;53.686;9.158;2023-03-08T00:35:58;1.77;;;1.17;;
20758;SDS011;10539;53.686;9.158;2023-03-08T00:38:27;2.23;;;1.20;;
20758;SDS011;10539;53.686;9.158;2023-03-08T00:40:54;6.00;;;1.33;;
20758;SDS011;10539;53.686;9.158;2023-03-08T00:43:20;2.07;;;1.20;;
20758;SDS011;10539;53.686;9.158;2023-03-08T00:45:46;2.43;;;1.27;;
20758;SDS011;10539;53.686;9.158;2023-03-08T00:48:12;3.43;;;1.13;;
20758;SDS011;10539;53.686;9.158;2023-03-08T00:50:38;2.97;;;1.40;;
20758;SDS011;10539;53.686;9.158;2023-03-08T00:53:04;3.40;;;1.30;;
20758;SDS011;10539;53.686;9.158;2023-03-08T00:55:30;6.63;;;1.60;;
20758;SDS011;10539;53.686;9.158;2023-03-08T00:57:56;3.50;;;1.87;;
20758;SDS011;10539;53.686;9.158;2023-03-08T01:00:21;6.13;;;1.93;;
20758;SDS011;10539;53.686;9.158;2023-03-08T01:02:48;4.00;;;1.80;;
20758;SDS011;10539;53.686;9.158;2023-03-08T01:05:14;6.50;;;2.13;;
20758;SDS011;10539;53.686;9.158;2023-03-08T01:07:39;5.50;;;2.40;;
20758;SDS011;10539;53.686;9.158;2023-03-08T01:10:05;3.57;;;2.23;;
20758;SDS011;10539;53.686;9.158;2023-03-08T01:12:32;3.23;;;2.10;;
20758;SDS011;10539;53.686;9.158;2023-03-08T01:14:58;4.93;;;2.50;;
20758;SDS011;10539;53.686;9.158;2023-03-08T01:17:24;4.30;;;2.47;;
20758;SDS011;10539;53.686;9.158;2023-03-08T01:19:50;4.63;;;2.60;;
20758;SDS011;10539;53.686;9.158;2023-03-08T01:22:15;7.53;;;2.60;;
20758;SDS011;10539;53.686;9.158;2023-03-08T01:24:44;4.67;;;2.43;;
20758;SDS011;10539;53.686;9.158;2023-03-08T01:27:11;3.93;;;2.53;;
20758;SDS011;10539;53.686;9.158;2023-03-08T01:29:37;5.40;;;2.30;;
20758;SDS011;10539;53.686;9.158;2023-03-08T01:32:03;3.30;;;2.27;;
20758;SDS011;10539;53.686;9.158;2023-03-08T01:34:29;4.83;;;2.83;;
20758;SDS011;10539;53.686;9.158;2023-03-08T01:36:54;5.43;;;3.10;;
20758;SDS011;10539;53.686;9.158;2023-03-08T01:39:20;8.47;;;3.50;;
20758;SDS011;10539;53.686;9.158;2023-03-08T01:41:46;4.73;;;2.80;;
20758;SDS011;10539;53.686;9.158;2023-03-08T01:44:16;4.73;;;2.80;;
20758;SDS011;10539;53.686;9.158;2023-03-08T01:46:44;7.53;;;2.37;;
20758;SDS011;10539;53.686;9.158;2023-03-08T01:54:16;4.90;;;2.33;;
20758;SDS011;10539;53.686;9.158;2023-03-08T01:56:47;3.70;;;2.10;;
20758;SDS011;10539;53.686;9.158;2023-03-08T01:59:14;2.73;;;1.80;;
20758;SDS011;10539;53.686;9.158;2023-03-08T02:01:41;4.67;;;2.17;;
20758;SDS011;10539;53.686;9.158;2023-03-08T02:04:08;2.53;;;1.60;;
20758;SDS011;10539;53.686;9.158;2023-03-08T02:06:34;2.27;;;1.50;;
20758;SDS011;10539;53.686;9.158;2023-03-08T02:09:00;2.40;;;1.60;;
20758;SDS011;10539;53.686;9.158;2023-03-08T02:11:29;1.97;;;0.93;;
20758;SDS011;10539;53.686;9.158;2023-03-08T02:13:56;2.37;;;1.33;;
20758;SDS011;10539;53.686;9.158;2023-03-08T02:16:23;3.70;;;2.07;;
20758;SDS011;10539;53.686;9.158;2023-03-08T02:18:49;3.17;;;1.97;;
20758;SDS011;10539;53.686;9.158;2023-03-08T02:21:30;4.67;;;2.20;;
20758;SDS011;10539;53.686;9.158;2023-03-08T02:24:01;6.30;;;3.37;;
20758;SDS011;10539;53.686;9.158;2023-03-08T02:26:32;8.87;;;4.60;;
20758;SDS011;10539;53.686;9.158;2023-03-08T02:29:00;6.17;;;3.80;;
20758;SDS011;10539;53.686;9.158;2023-03-08T02:31:25;5.27;;;3.20;;
20758;SDS011;10539;53.686;9.158;2023-03-08T02:33:51;5.17;;;3.67;;
20758;SDS011;10539;53.686;9.158;2023-03-08T02:36:17;6.07;;;3.63;;
20758;SDS011;10539;53.686;9.158;2023-03-08T02:38:43;8.57;;;4.47;;
20758;SDS011;10539;53.686;9.158;2023-03-08T02:41:08;7.30;;;4.40;;
20758;SDS011;10539;53.686;9.158;2023-03-08T02:43:34;7.50;;;4.60;;
20758;SDS011;10539;53.686;9.158;2023-03-08T02:46:00;6.47;;;3.73;;
20758;SDS011;10539;53.686;9.158;2023-03-08T02:48:25;6.47;;;4.00;;
20758;SDS011;10539;53.686;9.158;2023-03-08T02:50:51;7.63;;;4.53;;
20758;SDS011;10539;53.686;9.158;2023-03-08T02:53:17;7.17;;;4.67;;
20758;SDS011;10539;53.686;9.158;2023-03-08T02:55:43;5.23;;;3.17;;
20758;SDS011;10539;53.686;9.158;2023-03-08T02:58:08;6.93;;;3.57;;
20758;SDS011;10539;53.686;9.158;2023-03-08T03:00:34;8.73;;;4.67;;
20758;SDS011;10539;53.686;9.158;2023-03-08T03:03:01;9.97;;;4.67;;
20758;SDS011;10539;53.686;9.158;2023-03-08T03:05:27;7.23;;;4.60;;
20758;SDS011;10539;53.686;9.158;2023-03-08T03:07:53;9.23;;;5.20;;
20758;SDS011;10539;53.686;9.158;2023-03-08T03:10:20;9.40;;;4.33;;
20758;SDS011;10539;53.686;9.158;2023-03-08T03:12:46;9.90;;;5.40;;
20758;SDS011;10539;53.686;9.158;2023-03-08T03:15:12;11.27;;;5.70;;
20758;SDS011;10539;53.686;9.158;2023-03-08T03:17:38;10.40;;;5.57;;
20758;SDS011;10539;53.686;9.158;2023-03-08T03:20:04;12.77;;;7.00;;
20758;SDS011;10539;53.686;9.158;2023-03-08T03:22:33;11.17;;;5.90;;
20758;SDS011;10539;53.686;9.158;2023-03-08T03:24:59;8.93;;;4.60;;
20758;SDS011;10539;53.686;9.158;2023-03-08T03:27:25;10.83;;;4.60;;
20758;SDS011;10539;53.686;9.158;2023-03-08T03:29:50;8.03;;;4.60;;
20758;SDS011;10539;53.686;9.158;2023-03-08T03:32:16;11.57;;;5.33;;
20758;SDS011;10539;53.686;9.158;2023-03-08T03:34:42;12.60;;;5.90;;
20758;SDS011;10539;53.686;9.158;2023-03-08T03:37:08;8.27;;;5.13;;
20758;SDS011;10539;53.686;9.158;2023-03-08T03:39:37;9.50;;;4.90;;
20758;SDS011;10539;53.686;9.158;2023-03-08T03:42:04;9.67;;;4.50;;
20758;SDS011;10539;53.686;9.158;2023-03-08T03:44:33;9.73;;;4.57;;
20758;SDS011;10539;53.686;9.158;2023-03-08T03:46:59;7.67;;;4.20;;
20758;SDS011;10539;53.686;9.158;2023-03-08T03:49:25;7.80;;;4.30;;
20758;SDS011;10539;53.686;9.158;2023-03-08T03:51:51;6.50;;;4.80;;
20758;SDS011;10539;53.686;9.158;2023-03-08T03:54:16;9.27;;;4.37;;
20758;SDS011;10539;53.686;9.158;2023-03-08T03:56:42;6.83;;;4.57;;
20758;SDS011;10539;53.686;9.158;2023-03-08T03:59:08;9.23;;;5.07;;
20758;SDS011;10539;53.686;9.158;2023-03-08T04:01:34;11.63;;;5.37;;
20758;SDS011;10539;53.686;9.158;2023-03-08T04:04:00;7.90;;;4.87;;
20758;SDS011;10539;53.686;9.158;2023-03-08T04:06:29;8.90;;;5.30;;
20758;SDS011;10539;53.686;9.158;2023-03-08T04:08:57;11.80;;;5.50;;
20758;SDS011;10539;53.686;9.158;2023-03-08T04:11:25;10.37;;;5.87;;
20758;SDS011;10539;53.686;9.158;2023-03-08T04:13:54;12.47;;;6.67;;
20758;SDS011;10539;53.686;9.158;2023-03-08T04:16:25;13.67;;;7.03;;
20758;SDS011;10539;53.686;9.158;2023-03-08T04:18:56;9.23;;;6.57;;
20758;SDS011;10539;53.686;9.158;2023-03-08T04:21:26;10.43;;;6.40;;
20758;SDS011;10539;53.686;9.158;2023-03-08T04:23:53;10.67;;;7.43;;
20758;SDS011;10539;53.686;9.158;2023-03-08T04:26:19;11.83;;;7.10;;
20758;SDS011;10539;53.686;9.158;2023-03-08T04:28:45;10.97;;;6.60;;
20758;SDS011;10539;53.686;9.158;2023-03-08T04:31:12;13.13;;;6.50;;
20758;SDS011;10539;53.686;9.158;2023-03-08T04:33:39;6.47;;;4.37;;
20758;SDS011;10539;53.686;9.158;2023-03-08T04:36:04;5.10;;;3.37;;
20758;SDS011;10539;53.686;9.158;2023-03-08T04:38:30;5.40;;;3.57;;
20758;SDS011;10539;53.686;9.158;2023-03-08T04:40:57;7.87;;;4.03;;
20758;SDS011;10539;53.686;9.158;2023-03-08T04:43:32;8.47;;;3.53;;
20758;SDS011;10539;53.686;9.158;2023-03-08T04:45:59;5.50;;;3.40;;
20758;SDS011;10539;53.686;9.158;2023-03-08T04:48:26;4.70;;;3.10;;
20758;SDS011;10539;53.686;9.158;2023-03-08T04:50:52;6.33;;;3.47;;
20758;SDS011;10539;53.686;9.158;2023-03-08T04:53:19;6.80;;;3.57;;
20758;SDS011;10539;53.686;9.158;2023-03-08T04:55:46;7.20;;;4.17;;
20758;SDS011;10539;53.686;9.158;2023-03-08T04:58:12;9.00;;;4.10;;
20758;SDS011;10539;53.686;9.158;2023-03-08T05:00:38;4.97;;;3.30;;
20758;SDS011;10539;53.686;9.158;2023-03-08T05:03:03;5.33;;;3.67;;
20758;SDS011;10539;53.686;9.158;2023-03-08T05:05:31;7.00;;;3.27;;
20758;SDS011;10539;53.686;9.158;2023-03-08T05:07:57;4.73;;;2.30;;
20758;SDS011;10539;53.686;9.158;2023-03-08T05:10:30;5.37;;;2.93;;
20758;SDS011;10539;53.686;9.158;2023-03-08T05:12:56;6.80;;;3.40;;
20758;SDS011;10539;53.686;9.158;2023-03-08T05:15:22;4.30;;;3.37;;
20758;SDS011;10539;53.686;9.158;2023-03-08T05:17:49;5.83;;;3.63;;
20758;SDS011;10539;53.686;9.158;2023-03-08T05:20:15;6.77;;;3.10;;
20758;SDS011;10539;53.686;9.158;2023-03-08T05:22:41;4.13;;;3.23;;
20758;SDS011;10539;53.686;9.158;2023-03-08T05:25:07;3.33;;;2.70;;
20758;SDS011;10539;53.686;9.158;2023-03-08T05:27:34;6.53;;;3.67;;
20758;SDS011;10539;53.686;9.158;2023-03-08T05:30:01;6.83;;;4.13;;
20758;SDS011;10539;53.686;9.158;2023-03-08T05:32:31;6.07;;;3.13;;
20758;SDS011;10539;53.686;9.158;2023-03-08T05:34:56;6.37;;;3.23;;
20758;SDS011;10539;53.686;9.158;2023-03-08T05:37:22;5.60;;;3.40;;
20758;SDS011;10539;53.686;9.158;2023-03-08T05:39:51;5.30;;;3.37;;
20758;SDS011;10539;53.686;9.158;2023-03-08T05:42:17;5.73;;;3.40;;
20758;SDS011;10539;53.686;9.158;2023-03-08T05:44:43;8.13;;;2.77;;
20758;SDS011;10539;53.686;9.158;2023-03-08T05:47:09;7.13;;;3.63;;
20758;SDS011;10539;53.686;9.158;2023-03-08T05:49:35;7.07;;;3.57;;
20758;SDS011;10539;53.686;9.158;2023-03-08T05:52:01;9.00;;;3.60;;
20758;SDS011;10539;53.686;9.158;2023-03-08T05:54:27;6.37;;;3.97;;
20758;SDS011;10539;53.686;9.158;2023-03-08T05:56:52;9.33;;;4.13;;
20758;SDS011;10539;53.686;9.158;2023-03-08T05:59:18;6.30;;;4.00;;
20758;SDS011;10539;53.686;9.158;2023-03-08T06:01:44;8.70;;;4.43;;
20758;SDS011;10539;53.686;9.158;2023-03-08T06:04:10;10.93;;;5.13;;
20758;SDS011;10539;53.686;9.158;2023-03-08T06:06:36;10.47;;;4.60;;
20758;SDS011;10539;53.686;9.158;2023-03-08T06:09:01;10.37;;;5.17;;
20758;SDS011;10539;53.686;9.158;2023-03-08T06:11:28;7.80;;;4.57;;
20758;SDS011;10539;53.686;9.158;2023-03-08T06:13:54;9.43;;;5.73;;
20758;SDS011;10539;53.686;9.158;2023-03-08T06:16:20;8.57;;;5.47;;
20758;SDS011;10539;53.686;9.158;2023-03-08T06:18:45;13.17;;;6.07;;
20758;SDS011;10539;53.686;9.158;2023-03-08T06:21:12;10.63;;;5.13;;
20758;SDS011;10539;53.686;9.158;2023-03-08T06:23:43;9.47;;;5.20;;
20758;SDS011;10539;53.686;9.158;2023-03-08T06:26:10;11.50;;;5.27;;
20758;SDS011;10539;53.686;9.158;2023-03-08T06:28:37;8.67;;;5.23;;
20758;SDS011;10539;53.686;9.158;2023-03-08T06:31:04;9.50;;;5.60;;
20758;SDS011;10539;53.686;9.158;2023-03-08T06:33:31;9.53;;;5.67;;
20758;SDS011;10539;53.686;9.158;2023-03-08T06:35:59;9.73;;;6.07;;
20758;SDS011;10539;53.686;9.158;2023-03-08T06:38:25;9.17;;;5.20;;
20758;SDS011;10539;53.686;9.158;2023-03-08T06:40:52;12.50;;;5.60;;
20758;SDS011;10539;53.686;9.158;2023-03-08T06:43:17;11.77;;;5.40;;
20758;SDS011;10539;53.686;9.158;2023-03-08T06:45:43;8.97;;;5.00;;
20758;SDS011;10539;53.686;9.158;2023-03-08T06:48:09;11.33;;;5.57;;
20758;SDS011;10539;53.686;9.158;2023-03-08T06:50:35;10.43;;;5.17;;
20758;SDS011;10539;53.686;9.158;2023-03-08T06:53:00;11.47;;;5.80;;
20758;SDS011;10539;53.686;9.158;2023-03-08T06:55:26;10.10;;;5.63;;
20758;SDS011;10539;53.686;9.158;2023-03-08T06:57:52;10.57;;;6.33;;
20758;SDS011;10539;53.686;9.158;2023-03-08T07:00:20;10.20;;;5.60;;
20758;SDS011;10539;53.686;9.158;2023-03-08T07:02:47;12.97;;;6.30;;
20758;SDS011;10539;53.686;9.158;2023-03-08T07:05:14;9.37;;;5.97;;
20758;SDS011;10539;53.686;9.158;2023-03-08T07:07:40;9.20;;;5.87;;
20758;SDS011;10539;53.686;9.158;2023-03-08T07:10:07;8.73;;;5.17;;
20758;SDS011;10539;53.686;9.158;2023-03-08T07:12:35;7.67;;;5.27;;
20758;SDS011;10539;53.686;9.158;2023-03-08T07:15:07;9.73;;;5.43;;
20758;SDS011;10539;53.686;9.158;2023-03-08T07:17:34;8.53;;;5.23;;
20758;SDS011;10539;53.686;9.158;2023-03-08T07:20:03;10.07;;;5.97;;
20758;SDS011;10539;53.686;9.158;2023-03-08T07:22:30;9.03;;;5.30;;
20758;SDS011;10539;53.686;9.158;2023-03-08T07:24:56;9.43;;;5.07;;
20758;SDS011;10539;53.686;9.158;2023-03-08T07:27:22;12.00;;;5.40;;
20758;SDS011;10539;53.686;9.158;2023-03-08T07:29:47;6.53;;;4.70;;
20758;SDS011;10539;53.686;9.158;2023-03-08T07:32:13;10.40;;;5.30;;
20758;SDS011;10539;53.686;9.158;2023-03-08T07:34:39;9.20;;;4.93;;
20758;SDS011;10539;53.686;9.158;2023-03-08T07:37:04;9.90;;;5.47;;
20758;SDS011;10539;53.686;9.158;2023-03-08T07:39:34;8.77;;;5.13;;
20758;SDS011;10539;53.686;9.158;2023-03-08T07:42:00;8.13;;;4.80;;
20758;SDS011;10539;53.686;9.158;2023-03-08T07:44:26;10.63;;;5.30;;
20758;SDS011;10539;53.686;9.158;2023-03-08T07:46:51;10.60;;;5.60;;
20758;SDS011;10539;53.686;9.158;2023-03-08T07:49:17;7.57;;;4.73;;
20758;SDS011;10539;53.686;9.158;2023-03-08T07:51:43;9.03;;;5.10;;
20758;SDS011;10539;53.686;9.158;2023-03-08T07:54:10;9.63;;;4.63;;
20758;SDS011;10539;53.686;9.158;2023-03-08T07:56:37;8.20;;;4.67;;
20758;SDS011;10539;53.686;9.158;2023-03-08T07:59:03;10.30;;;4.63;;
20758;SDS011;10539;53.686;9.158;2023-03-08T08:01:28;10.80;;;4.77;;
20758;SDS011;10539;53.686;9.158;2023-03-08T08:03:54;9.10;;;5.00;;
20758;SDS011;10539;53.686;9.158;2023-03-08T08:06:20;12.00;;;5.70;;
20758;SDS011;10539;53.686;9.158;2023-03-08T08:08:46;8.20;;;5.30;;
20758;SDS011;10539;53.686;9.158;2023-03-08T08:11:13;11.30;;;5.63;;
20758;SDS011;10539;53.686;9.158;2023-03-08T08:13:40;9.33;;;5.60;;
20758;SDS011;10539;53.686;9.158;2023-03-08T08:16:06;10.43;;;5.57;;
20758;SDS011;10539;53.686;9.158;2023-03-08T08:18:33;10.53;;;6.27;;
20758;SDS011;10539;53.686;9.158;2023-03-08T08:21:03;11.07;;;5.77;;
20758;SDS011;10539;53.686;9.158;2023-03-08T08:23:34;11.97;;;6.30;;
20758;SDS011;10539;53.686;9.158;2023-03-08T08:26:05;9.67;;;5.80;;
20758;SDS011;10539;53.686;9.158;2023-03-08T08:28:32;9.63;;;5.90;;
20758;SDS011;10539;53.686;9.158;2023-03-08T08:30:59;11.17;;;6.20;;
20758;SDS011;10539;53.686;9.158;2023-03-08T08:33:30;9.50;;;5.60;;
20758;SDS011;10539;53.686;9.158;2023-03-08T08:35:57;10.73;;;6.03;;
20758;SDS011;10539;53.686;9.158;2023-03-08T08:38:23;7.67;;;5.17;;
20758;SDS011;10539;53.686;9.158;2023-03-08T08:40:49;9.70;;;6.17;;
20758;SDS011;10539;53.686;9.158;2023-03-08T08:43:15;11.87;;;5.97;;
20758;SDS011;10539;53.686;9.158;2023-03-08T08:45:42;11.40;;;5.53;;
20758;SDS011;10539;53.686;9.158;2023-03-08T08:48:12;8.67;;;5.50;;
20758;SDS011;10539;53.686;9.158;2023-03-08T08:50:39;9.60;;;5.60;;
20758;SDS011;10539;53.686;9.158;2023-03-08T08:53:05;7.23;;;5.23;;
20758;SDS011;10539;53.686;9.158;2023-03-08T08:55:32;11.33;;;5.57;;
20758;SDS011;10539;53.686;9.158;2023-03-08T08:57:58;11.57;;;5.70;;
20758;SDS011;10539;53.686;9.158;2023-03-08T09:00:23;10.00;;;5.40;;
20758;SDS011;10539;53.686;9.158;2023-03-08T09:02:49;10.63;;;5.60;;
20758;SDS011;10539;53.686;9.158;2023-03-08T09:05:15;8.43;;;4.83;;
20758;SDS011;10539;53.686;9.158;2023-03-08T09:07:40;11.27;;;5.47;;
20758;SDS011;10539;53.686;9.158;2023-03-08T09:10:07;9.70;;;5.90;;
20758;SDS011;10539;53.686;9.158;2023-03-08T09:12:33;9.67;;;4.93;;
20758;SDS011;10539;53.686;9.158;2023-03-08T09:14:59;8.27;;;5.27;;
20758;SDS011;10539;53.686;9.158;2023-03-08T09:17:25;9.20;;;5.27;;
20758;SDS011;10539;53.686;9.158;2023-03-08T09:19:50;7.77;;;5.27;;
20758;SDS011;10539;53.686;9.158;2023-03-08T09:22:16;11.60;;;5.27;;
20758;SDS011;10539;53.686;9.158;2023-03-08T09:24:43;7.63;;;4.57;;
20758;SDS011;10539;53.686;9.158;2023-03-08T09:27:12;11.97;;;5.70;;
20758;SDS011;10539;53.686;9.158;2023-03-08T09:29:37;9.07;;;5.57;;
20758;SDS011;10539;53.686;9.158;2023-03-08T09:32:03;7.90;;;4.97;;
20758;SDS011;10539;53.686;9.158;2023-03-08T09:34:30;10.20;;;5.53;;
20758;SDS011;10539;53.686;9.158;2023-03-08T09:36:56;9.97;;;5.67;;
20758;SDS011;10539;53.686;9.158;2023-03-08T09:39:22;10.00;;;5.33;;
20758;SDS011;10539;53.686;9.158;2023-03-08T09:44:45;10.30;;;5.93;;
20758;SDS011;10539;53.686;9.158;2023-03-08T09:49:53;11.97;;;5.63;;
20758;SDS011;10539;53.686;9.158;2023-03-08T09:52:31;12.03;;;5.67;;
20758;SDS011;10539;53.686;9.158;2023-03-08T09:55:37;10.43;;;5.63;;
20758;SDS011;10539;53.686;9.158;2023-03-08T09:58:19;9.17;;;5.53;;
20758;SDS011;10539;53.686;9.158;2023-03-08T10:01:01;9.67;;;5.70;;
20758;SDS011;10539;53.686;9.158;2023-03-08T10:04:01;9.60;;;5.23;;
20758;SDS011;10539;53.686;9.158;2023-03-08T10:06:33;8.77;;;5.63;;
20758;SDS011;10539;53.686;9.158;2023-03-08T10:09:30;10.90;;;5.60;;
20758;SDS011;10539;53.686;9.158;2023-03-08T10:12:06;8.13;;;5.53;;
20758;SDS011;10539;53.686;9.158;2023-03-08T10:14:45;14.30;;;6.33;;
20758;SDS011;10539;53.686;9.158;2023-03-08T10:17:16;14.27;;;5.90;;
20758;SDS011;10539;53.686;9.158;2023-03-08T10:19:52;10.53;;;6.40;;
20758;SDS011;10539;53.686;9.158;2023-03-08T10:22:30;9.83;;;5.73;;
20758;SDS011;10539;53.686;9.158;2023-03-08T10:25:41;11.57;;;5.97;;
20758;SDS011;10539;53.686;9.158;2023-03-08T10:27:55;11.80;;;5.83;;
20758;SDS011;10539;53.686;9.158;2023-03-08T10:30:24;13.40;;;6.53;;
20758;SDS011;10539;53.686;9.158;2023-03-08T10:32:56;9.63;;;6.73;;
20758;SDS011;10539;53.686;9.158;2023-03-08T10:35:31;11.97;;;6.53;;
20758;SDS011;10539;53.686;9.158;2023-03-08T10:38:16;12.50;;;6.73;;
20758;SDS011;10539;53.686;9.158;2023-03-08T10:40:42;12.77;;;7.70;;
20758;SDS011;10539;53.686;9.158;2023-03-08T10:43:13;16.03;;;7.87;;
20758;SDS011;10539;53.686;9.158;2023-03-08T10:45:57;13.83;;;7.70;;
20758;SDS011;10539;53.686;9.158;2023-03-08T10:48:35;14.70;;;7.33;;
20758;SDS011;10539;53.686;9.158;2023-03-08T10:51:02;12.03;;;6.60;;
20758;SDS011;10539;53.686;9.158;2023-03-08T10:53:30;15.47;;;7.00;;
20758;SDS011;10539;53.686;9.158;2023-03-08T10:55:59;14.47;;;7.67;;
20758;SDS011;10539;53.686;9.158;2023-03-08T10:58:43;15.33;;;7.50;;
20758;SDS011;10539;53.686;9.158;2023-03-08T11:01:26;17.97;;;7.97;;
20758;SDS011;10539;53.686;9.158;2023-03-08T11:04:12;13.20;;;7.07;;
20758;SDS011;10539;53.686;9.158;2023-03-08T11:06:41;15.23;;;7.87;;
20758;SDS011;10539;53.686;9.158;2023-03-08T11:09:18;15.67;;;9.00;;
20758;SDS011;10539;53.686;9.158;2023-03-08T11:11:44;20.37;;;9.10;;
20758;SDS011;10539;53.686;9.158;2023-03-08T11:14:10;16.97;;;8.70;;
20758;SDS011;10539;53.686;9.158;2023-03-08T11:19:17;15.47;;;7.97;;
20758;SDS011;10539;53.686;9.158;2023-03-08T11:21:59;17.43;;;7.47;;
20758;SDS011;10539;53.686;9.158;2023-03-08T11:37:54;12.53;;;6.40;;
20758;SDS011;10539;53.686;9.158;2023-03-08T11:52:05;14.10;;;6.87;;
20758;SDS011;10539;53.686;9.158;2023-03-08T11:57:17;12.23;;;7.33;;
20758;SDS011;10539;53.686;9.158;2023-03-08T11:59:51;14.70;;;7.73;;
20758;SDS011;10539;53.686;9.158;2023-03-08T12:02:26;18.90;;;8.60;;
20758;SDS011;10539;53.686;9.158;2023-03-08T12:04:56;18.83;;;9.03;;
20758;SDS011;10539;53.686;9.158;2023-03-08T12:07:50;19.13;;;9.13;;
20758;SDS011;10539;53.686;9.158;2023-03-08T12:10:20;17.80;;;8.40;;
20758;SDS011;10539;53.686;9.158;2023-03-08T12:12:51;18.57;;;8.70;;
20758;SDS011;10539;53.686;9.158;2023-03-08T12:18:04;21.40;;;9.90;;
20758;SDS011;10539;53.686;9.158;2023-03-08T12:20:38;18.43;;;9.03;;
20758;SDS011;10539;53.686;9.158;2023-03-08T12:23:10;15.03;;;6.70;;
20758;SDS011;10539;53.686;9.158;2023-03-08T12:25:38;15.73;;;6.83;;
20758;SDS011;10539;53.686;9.158;2023-03-08T12:28:15;13.27;;;6.53;;
20758;SDS011;10539;53.686;9.158;2023-03-08T12:33:24;13.93;;;6.53;;
20758;SDS011;10539;53.686;9.158;2023-03-08T12:35:55;16.83;;;7.37;;
20758;SDS011;10539;53.686;9.158;2023-03-08T12:38:31;15.13;;;7.13;;
20758;SDS011;10539;53.686;9.158;2023-03-08T12:41:02;12.87;;;5.93;;
20758;SDS011;10539;53.686;9.158;2023-03-08T12:43:32;12.53;;;6.80;;
20758;SDS011;10539;53.686;9.158;2023-03-08T12:53:28;12.57;;;5.67;;
20758;SDS011;10539;53.686;9.158;2023-03-08T12:56:06;12.63;;;5.90;;
20758;SDS011;10539;53.686;9.158;2023-03-08T13:07:02;10.67;;;5.07;;
20758;SDS011;10539;53.686;9.158;2023-03-08T13:09:44;12.80;;;4.70;;
20758;SDS011;10539;53.686;9.158;2023-03-08T13:14:58;9.90;;;4.27;;
20758;SDS011;10539;53.686;9.158;2023-03-08T13:17:36;10.77;;;4.83;;
20758;SDS011;10539;53.686;9.158;2023-03-08T13:22:49;9.60;;;3.00;;
20758;SDS011;10539;53.686;9.158;2023-03-08T13:25:39;7.23;;;3.70;;
20758;SDS011;10539;53.686;9.158;2023-03-08T13:28:27;11.13;;;5.10;;
20758;SDS011;10539;53.686;9.158;2023-03-08T13:31:02;11.63;;;4.87;;
20758;SDS011;10539;53.686;9.158;2023-03-08T13:33:47;7.90;;;4.10;;
20758;SDS011;10539;53.686;9.158;2023-03-08T13:36:21;8.53;;;3.90;;
20758;SDS011;10539;53.686;9.158;2023-03-08T13:39:37;11.47;;;3.90;;
20758;SDS011;10539;53.686;9.158;2023-03-08T13:41:45;7.57;;;3.77;;
20758;SDS011;10539;53.686;9.158;2023-03-08T13:44:29;12.77;;;4.43;;
20758;SDS011;10539;53.686;9.158;2023-03-08T13:46:56;8.37;;;3.67;;
20758;SDS011;10539;53.686;9.158;2023-03-08T13:51:56;9.27;;;4.40;;
20758;SDS011;10539;53.686;9.158;2023-03-08T13:54:28;10.33;;;4.43;;
20758;SDS011;10539;53.686;9.158;2023-03-08T13:57:01;13.43;;;5.03;;
20758;SDS011;10539;53.686;9.158;2023-03-08T13:59:30;9.97;;;4.30;;
20758;SDS011;10539;53.686;9.158;2023-03-08T14:01:56;9.10;;;4.53;;
20758;SDS011;10539;53.686;9.158;2023-03-08T14:04:24;12.87;;;5.17;;
20758;SDS011;10539;53.686;9.158;2023-03-08T14:06:52;9.17;;;3.90;;
20758;SDS011;10539;53.686;9.158;2023-03-08T14:09:20;6.47;;;3.50;;
20758;SDS011;10539;53.686;9.158;2023-03-08T14:11:59;7.57;;;4.23;;
20758;SDS011;10539;53.686;9.158;2023-03-08T14:14:30;6.00;;;2.67;;
20758;SDS011;10539;53.686;9.158;2023-03-08T14:17:01;6.87;;;2.50;;
20758;SDS011;10539;53.686;9.158;2023-03-08T14:19:34;6.13;;;2.90;;
20758;SDS011;10539;53.686;9.158;2023-03-08T14:22:08;10.43;;;3.50;;
20758;SDS011;10539;53.686;9.158;2023-03-08T14:24:36;9.83;;;4.37;;
20758;SDS011;10539;53.686;9.158;2023-03-08T14:27:04;11.90;;;4.50;;
20758;SDS011;10539;53.686;9.158;2023-03-08T14:29:34;11.83;;;4.90;;
20758;SDS011;10539;53.686;9.158;2023-03-08T14:32:02;10.03;;;4.73;;
20758;SDS011;10539;53.686;9.158;2023-03-08T14:34:41;11.63;;;4.77;;
20758;SDS011;10539;53.686;9.158;2023-03-08T14:39:38;10.53;;;3.97;;
20758;SDS011;10539;53.686;9.158;2023-03-08T14:45:04;8.17;;;3.70;;
20758;SDS011;10539;53.686;9.158;2023-03-08T14:47:47;8.77;;;4.37;;
20758;SDS011;10539;53.686;9.158;2023-03-08T14:52:47;9.67;;;3.47;;
20758;SDS011;10539;53.686;9.158;2023-03-08T14:55:22;9.57;;;3.73;;
20758;SDS011;10539;53.686;9.158;2023-03-08T14:58:03;7.27;;;3.53;;
20758;SDS011;10539;53.686;9.158;2023-03-08T15:00:36;8.90;;;4.20;;
20758;SDS011;10539;53.686;9.158;2023-03-08T15:03:12;10.20;;;4.63;;
20758;SDS011;10539;53.686;9.158;2023-03-08T15:05:38;11.20;;;4.90;;
20758;SDS011;10539;53.686;9.158;2023-03-08T15:08:04;12.00;;;5.17;;
20758;SDS011;10539;53.686;9.158;2023-03-08T15:10:35;12.47;;;4.83;;
20758;SDS011;10539;53.686;9.158;2023-03-08T15:13:10;12.40;;;5.87;;
20758;SDS011;10539;53.686;9.158;2023-03-08T15:15:38;14.83;;;6.07;;
20758;SDS011;10539;53.686;9.158;2023-03-08T15:18:04;12.10;;;5.27;;
20758;SDS011;10539;53.686;9.158;2023-03-08T15:20:30;13.90;;;5.40;;
20758;SDS011;10539;53.686;9.158;2023-03-08T15:23:00;9.33;;;4.20;;
20758;SDS011;10539;53.686;9.158;2023-03-08T15:25:30;12.37;;;5.90;;
20758;SDS011;10539;53.686;9.158;2023-03-08T15:27:58;11.83;;;5.47;;
20758;SDS011;10539;53.686;9.158;2023-03-08T15:30:25;12.73;;;4.80;;
20758;SDS011;10539;53.686;9.158;2023-03-08T15:32:52;13.17;;;5.10;;
20758;SDS011;10539;53.686;9.158;2023-03-08T15:35:18;11.27;;;5.10;;
20758;SDS011;10539;53.686;9.158;2023-03-08T15:37:44;12.27;;;5.57;;
20758;SDS011;10539;53.686;9.158;2023-03-08T15:40:12;11.30;;;4.87;;
20758;SDS011;10539;53.686;9.158;2023-03-08T15:42:39;10.27;;;4.37;;
20758;SDS011;10539;53.686;9.158;2023-03-08T15:45:05;12.40;;;4.73;;
20758;SDS011;10539;53.686;9.158;2023-03-08T15:47:31;11.10;;;4.27;;
20758;SDS011;10539;53.686;9.158;2023-03-08T15:49:57;10.30;;;4.10;;
20758;SDS011;10539;53.686;9.158;2023-03-08T15:52:23;10.47;;;5.03;;
20758;SDS011;10539;53.686;9.158;2023-03-08T15:54:48;10.00;;;4.20;;
20758;SDS011;10539;53.686;9.158;2023-03-08T15:57:15;10.83;;;4.27;;
20758;SDS011;10539;53.686;9.158;2023-03-08T15:59:41;8.83;;;4.47;;
20758;SDS011;10539;53.686;9.158;2023-03-08T16:02:16;9.10;;;3.67;;
20758;SDS011;10539;53.686;9.158;2023-03-08T16:04:43;12.17;;;4.17;;
20758;SDS011;10539;53.686;9.158;2023-03-08T16:07:13;11.07;;;4.47;;
20758;SDS011;10539;53.686;9.158;2023-03-08T16:09:39;12.03;;;4.20;;
20758;SDS011;10539;53.686;9.158;2023-03-08T16:12:05;8.77;;;3.77;;